Terminal Aerodrome Forecast
Issued by NWS

Home | Current Version | Previous Version | Text Only | Print | Product List | Glossary On
Versions: 1 2 3 4 5 6 7 8 9 10 11 12 13 14
000
FTUS46 KMTR 270251 AAA
TAFOAK
TAF AMD
KOAK 270251Z 2703/2806 28015KT P6SM BKN019
     FM271200 26009KT P6SM OVC016
     FM271800 25008KT P6SM SCT020
     FM272100 27014KT P6SM FEW018
     FM280400 27012KT P6SM SCT020=

USA.gov is the U.S. government's official web portal to all federal, state and local government web resources and services.